Terminal Aerodrome Forecast
Issued by NWS

Home | Current Version | Previous Version | Text Only | Print | Product List | Glossary On
Versions: 1 2 3 4 5 6 7 8 9 10 11 12 13
309
FTUS45 KPSR 120520
TAFBLH
TAF
KBLH 120520Z 1206/1306 34006KT P6SM SKC
     FM121800 VRB04KT P6SM FEW250
     FM130300 34005KT P6SM SKC=

USA.gov is the U.S. government's official web portal to all federal, state and local government web resources and services.